Time;durP1;ratioP1;P1;durP2;ratioP2;P2;SDS_P1;SDS_P2;PMS_P1;PMS_P2;Temp;Humidity;BMP_temperature;BMP_pressure;BME280_temperature;BME280_humidity;BME280_pressure;Samples;Min_cycle;Max_cycle;Signal;HPM_P1;HPM_P2
2021/11/07 00:00:30;;;;;;;3.17;1.48;;;;;;;;;;5017431;28;20104;-79
2021/11/07 00:03:21;;;;;;;3.80;1.80;;;;;;;;;;5015210;28;20092;-79
2021/11/07 00:06:00;;;;;;;5.05;1.90;;;;;;;;;;5012594;28;21582;-80
2021/11/07 00:08:43;;;;;;;3.58;1.45;;;;;;;;;;5016403;28;20033;-79
2021/11/07 00:11:34;;;;;;;3.90;1.70;;;;;;;;;;5017376;28;20044;-79
2021/11/07 00:13:56;;;;;;;5.45;1.63;;;;;;;;;;5015165;28;20092;-80
2021/11/07 00:16:27;;;;;;;6.22;1.70;;;;;;;;;;5014703;28;20153;-80
2021/11/07 00:19:15;;;;;;;2.88;1.65;;;;;;;;;;5020762;28;20057;-80
2021/11/07 00:21:51;;;;;;;3.75;1.85;;;;;;;;;;5015179;28;20458;-79
2021/11/07 00:27:34;;;;;;;3.78;1.50;;;;;;;;;;5018792;28;20042;-79
2021/11/07 00:29:41;;;;;;;3.45;1.30;;;;;;;;;;5001448;28;20038;-79
2021/11/07 00:32:21;;;;;;;3.45;1.70;;;;;;;;;;5014634;28;20254;-80
2021/11/07 00:37:35;;;;;;;3.03;1.40;;;;;;;;;;5011170;28;20034;-78
2021/11/07 00:40:20;;;;;;;4.22;1.48;;;;;;;;;;4998026;28;20061;-78
2021/11/07 00:51:13;;;;;;;3.30;1.60;;;;;;;;;;5009327;28;20042;-80
2021/11/07 00:53:49;;;;;;;3.83;1.50;;;;;;;;;;5012671;28;20042;-80
2021/11/07 01:01:35;;;;;;;5.40;1.88;;;;;;;;;;4991900;28;20046;-80
2021/11/07 01:04:04;;;;;;;3.13;1.38;;;;;;;;;;5000456;28;20029;-80
2021/11/07 01:06:31;;;;;;;2.88;1.50;;;;;;;;;;5018479;28;20034;-80
2021/11/07 01:08:58;;;;;;;2.45;1.30;;;;;;;;;;5007423;28;20061;-80
2021/11/07 01:11:24;;;;;;;2.47;1.60;;;;;;;;;;5007951;28;20123;-82
2021/11/07 01:13:51;;;;;;;3.15;1.50;;;;;;;;;;5008376;28;20066;-81
2021/11/07 01:16:18;;;;;;;2.58;1.23;;;;;;;;;;5016793;28;20026;-79
2021/11/07 01:18:45;;;;;;;3.83;1.48;;;;;;;;;;5015275;28;20057;-79
2021/11/07 01:21:14;;;;;;;4.00;1.58;;;;;;;;;;5015865;28;20382;-82
2021/11/07 01:23:51;;;;;;;3.53;1.38;;;;;;;;;;5014318;28;20038;-79
2021/11/07 01:28:49;;;;;;;4.68;1.67;;;;;;;;;;5003653;28;20107;-79
2021/11/07 01:31:15;;;;;;;2.47;1.30;;;;;;;;;;5006205;28;20070;-80
2021/11/07 01:33:43;;;;;;;2.72;1.42;;;;;;;;;;5007980;28;20054;-78
2021/11/07 01:36:35;;;;;;;2.63;1.20;;;;;;;;;;5009739;28;20042;-78
2021/11/07 01:39:14;;;;;;;2.70;1.42;;;;;;;;;;5012635;28;20439;-78
2021/11/07 01:44:35;;;;;;;3.28;1.38;;;;;;;;;;4997387;28;20116;-79
2021/11/07 01:47:01;;;;;;;2.30;1.30;;;;;;;;;;5016308;28;20448;-79
2021/11/07 01:49:34;;;;;;;2.88;1.40;;;;;;;;;;5014769;28;20030;-79
2021/11/07 01:52:03;;;;;;;3.38;1.30;;;;;;;;;;5014757;28;20108;-80
2021/11/07 01:54:47;;;;;;;2.63;1.33;;;;;;;;;;5017031;28;20038;-79
2021/11/07 01:57:14;;;;;;;2.38;1.27;;;;;;;;;;5013112;28;20034;-79
2021/11/07 01:59:48;;;;;;;3.40;1.25;;;;;;;;;;5017239;28;20745;-79
2021/11/07 02:02:15;;;;;;;3.08;1.33;;;;;;;;;;5015789;28;20038;-78
2021/11/07 02:04:42;;;;;;;2.05;1.20;;;;;;;;;;5016117;28;20107;-80
2021/11/07 02:07:08;;;;;;;4.10;1.60;;;;;;;;;;5014513;28;20072;-80
2021/11/07 02:09:35;;;;;;;2.13;1.30;;;;;;;;;;4994912;28;20034;-79
2021/11/07 02:12:02;;;;;;;3.08;1.58;;;;;;;;;;5016182;28;20069;-80
2021/11/07 02:14:29;;;;;;;2.88;1.40;;;;;;;;;;5008676;28;20034;-81
2021/11/07 02:16:55;;;;;;;2.85;1.08;;;;;;;;;;5011734;28;20437;-80
2021/11/07 02:19:22;;;;;;;2.92;1.20;;;;;;;;;;5011070;28;20088;-80
2021/11/07 02:21:49;;;;;;;3.83;1.20;;;;;;;;;;5014090;28;20034;-79
2021/11/07 02:24:16;;;;;;;2.92;1.20;;;;;;;;;;5004587;28;20065;-80
2021/11/07 02:26:44;;;;;;;2.15;1.15;;;;;;;;;;5008172;28;20057;-80
2021/11/07 02:29:11;;;;;;;2.90;1.40;;;;;;;;;;5010904;28;20527;-80
2021/11/07 02:31:37;;;;;;;3.00;1.33;;;;;;;;;;5010503;28;20057;-80
2021/11/07 02:34:03;;;;;;;5.43;1.55;;;;;;;;;;5012032;28;20053;-80
2021/11/07 02:36:30;;;;;;;3.13;1.20;;;;;;;;;;5007044;28;20497;-80
2021/11/07 02:38:56;;;;;;;1.88;0.90;;;;;;;;;;5009913;28;20076;-80
2021/11/07 02:41:23;;;;;;;2.58;1.30;;;;;;;;;;5008790;28;20058;-80
2021/11/07 02:43:51;;;;;;;3.15;1.20;;;;;;;;;;5006985;28;20972;-80
2021/11/07 02:46:18;;;;;;;2.10;1.10;;;;;;;;;;5009690;28;20057;-80
2021/11/07 02:48:46;;;;;;;2.17;1.10;;;;;;;;;;4991048;28;20053;-81
2021/11/07 02:51:12;;;;;;;2.40;1.10;;;;;;;;;;5010058;28;20065;-80
2021/11/07 02:53:40;;;;;;;1.63;0.93;;;;;;;;;;5010081;28;21561;-80
2021/11/07 02:56:07;;;;;;;4.07;1.38;;;;;;;;;;5011014;28;20072;-81
2021/11/07 02:58:33;;;;;;;1.73;0.90;;;;;;;;;;5010579;28;20113;-80
2021/11/07 03:01:01;;;;;;;2.83;1.33;;;;;;;;;;5009469;28;20056;-79
2021/11/07 03:03:29;;;;;;;3.42;1.15;;;;;;;;;;5010113;28;20650;-80
2021/11/07 03:05:55;;;;;;;2.25;1.13;;;;;;;;;;5009339;28;20053;-81
2021/11/07 03:08:22;;;;;;;4.70;0.80;;;;;;;;;;5009314;28;20062;-80
2021/11/07 03:10:48;;;;;;;3.38;1.10;;;;;;;;;;5008654;28;20179;-80
2021/11/07 03:13:15;;;;;;;3.28;1.13;;;;;;;;;;5006900;28;20061;-80
2021/11/07 03:15:42;;;;;;;1.38;1.00;;;;;;;;;;5007002;28;20061;-80
2021/11/07 03:18:09;;;;;;;2.40;1.00;;;;;;;;;;4992393;28;20061;-80
2021/11/07 03:20:36;;;;;;;2.55;1.08;;;;;;;;;;5008153;28;20054;-80
2021/11/07 03:23:03;;;;;;;1.75;1.10;;;;;;;;;;5008282;28;20049;-80
2021/11/07 03:25:30;;;;;;;1.92;1.10;;;;;;;;;;5009384;28;20034;-80
2021/11/07 03:27:57;;;;;;;3.13;1.00;;;;;;;;;;5009670;28;20058;-80
2021/11/07 03:35:39;;;;;;;2.58;1.10;;;;;;;;;;5008423;28;20368;-79
2021/11/07 03:38:05;;;;;;;2.00;1.20;;;;;;;;;;5008624;28;20065;-80
2021/11/07 03:40:33;;;;;;;1.75;0.90;;;;;;;;;;5006660;28;20585;-81
2021/11/07 03:43:00;;;;;;;1.88;0.90;;;;;;;;;;5011299;28;20041;-81
2021/11/07 03:45:27;;;;;;;3.92;1.10;;;;;;;;;;5008698;28;20123;-81
2021/11/07 03:47:53;;;;;;;1.13;0.70;;;;;;;;;;5010235;28;20080;-81
2021/11/07 03:50:20;;;;;;;2.00;1.00;;;;;;;;;;5007250;28;20061;-81
2021/11/07 03:52:48;;;;;;;1.55;0.82;;;;;;;;;;5007534;28;20065;-81
2021/11/07 03:55:14;;;;;;;1.40;0.80;;;;;;;;;;5000687;28;20098;-80
2021/11/07 03:57:41;;;;;;;2.00;0.90;;;;;;;;;;5008143;28;20053;-81
2021/11/07 04:00:08;;;;;;;2.25;1.05;;;;;;;;;;5009757;28;20061;-81
2021/11/07 04:02:35;;;;;;;1.17;0.95;;;;;;;;;;5008232;28;20050;-80
2021/11/07 04:05:01;;;;;;;1.83;0.88;;;;;;;;;;5009072;28;20054;-80
2021/11/07 04:07:28;;;;;;;3.28;0.95;;;;;;;;;;5009144;28;20065;-80
2021/11/07 04:09:54;;;;;;;1.63;0.88;;;;;;;;;;5009350;28;20061;-81
2021/11/07 04:12:21;;;;;;;1.60;0.80;;;;;;;;;;5006850;28;20583;-81
2021/11/07 04:14:47;;;;;;;2.13;0.93;;;;;;;;;;5008839;28;20042;-82
2021/11/07 04:17:14;;;;;;;1.77;0.70;;;;;;;;;;5009225;28;20111;-81
2021/11/07 04:19:40;;;;;;;1.70;0.73;;;;;;;;;;5010147;28;20057;-81
2021/11/07 04:22:09;;;;;;;0.82;0.70;;;;;;;;;;5007675;28;20062;-81
2021/11/07 04:24:36;;;;;;;1.85;1.05;;;;;;;;;;5005878;28;20639;-80
2021/11/07 04:27:03;;;;;;;3.70;0.90;;;;;;;;;;5007026;28;20076;-80
2021/11/07 04:29:29;;;;;;;1.27;0.70;;;;;;;;;;5007471;28;20058;-81
2021/11/07 04:31:56;;;;;;;2.47;0.95;;;;;;;;;;5008235;28;20091;-80
2021/11/07 04:34:23;;;;;;;2.05;1.00;;;;;;;;;;5009567;28;20519;-82
2021/11/07 04:36:50;;;;;;;1.95;0.82;;;;;;;;;;5009261;28;20080;-81
2021/11/07 04:39:16;;;;;;;1.77;0.85;;;;;;;;;;5008886;28;20107;-81
2021/11/07 04:41:43;;;;;;;1.65;0.70;;;;;;;;;;5007369;28;20057;-81
2021/11/07 04:44:09;;;;;;;1.98;0.80;;;;;;;;;;5006799;28;20037;-81
2021/11/07 04:46:36;;;;;;;2.63;0.90;;;;;;;;;;5008759;28;20053;-80
2021/11/07 04:49:03;;;;;;;1.45;0.77;;;;;;;;;;5008900;28;20057;-80
2021/11/07 04:51:30;;;;;;;1.20;0.77;;;;;;;;;;5007141;28;20116;-81
2021/11/07 04:53:56;;;;;;;2.17;0.80;;;;;;;;;;5008117;28;20069;-81
2021/11/07 04:56:22;;;;;;;1.40;0.70;;;;;;;;;;5006573;28;20070;-80
2021/11/07 04:58:50;;;;;;;1.25;0.55;;;;;;;;;;5007514;28;20065;-79
2021/11/07 05:01:16;;;;;;;2.67;0.90;;;;;;;;;;5001812;28;20068;-80
2021/11/07 05:03:43;;;;;;;2.15;0.98;;;;;;;;;;5008186;28;20060;-80
2021/11/07 05:06:09;;;;;;;2.17;0.70;;;;;;;;;;5007917;28;20036;-80
2021/11/07 05:08:36;;;;;;;2.03;0.82;;;;;;;;;;4988657;28;20080;-80
2021/11/07 05:11:03;;;;;;;1.40;0.68;;;;;;;;;;5007336;28;20061;-78
2021/11/07 05:13:30;;;;;;;2.85;0.80;;;;;;;;;;5007989;28;20070;-79
2021/11/07 05:15:56;;;;;;;2.60;0.82;;;;;;;;;;5004953;28;20066;-76
2021/11/07 05:18:23;;;;;;;2.72;0.70;;;;;;;;;;5007796;28;20056;-78
2021/11/07 05:20:50;;;;;;;2.53;0.93;;;;;;;;;;4974699;28;20187;-80
2021/11/07 05:23:17;;;;;;;1.27;0.70;;;;;;;;;;5004184;28;20121;-80
2021/11/07 05:25:43;;;;;;;1.60;0.70;;;;;;;;;;5009441;28;20057;-79
2021/11/07 05:28:10;;;;;;;2.13;0.88;;;;;;;;;;4984315;28;20048;-79
2021/11/07 05:30:37;;;;;;;2.35;0.98;;;;;;;;;;5008078;28;20168;-79
2021/11/07 05:33:04;;;;;;;1.88;0.82;;;;;;;;;;5007025;28;20187;-79
2021/11/07 05:35:30;;;;;;;1.35;0.60;;;;;;;;;;5006856;28;20123;-79
2021/11/07 05:37:56;;;;;;;0.80;0.50;;;;;;;;;;4989857;28;20054;-80
2021/11/07 05:40:23;;;;;;;1.67;0.75;;;;;;;;;;5005626;28;20054;-80
2021/11/07 05:42:50;;;;;;;1.40;0.75;;;;;;;;;;5007081;28;20068;-81
2021/11/07 05:45:16;;;;;;;1.67;0.60;;;;;;;;;;5005359;28;20112;-78
2021/11/07 05:47:44;;;;;;;2.58;0.70;;;;;;;;;;5002723;28;20054;-78
2021/11/07 05:50:11;;;;;;;1.40;0.60;;;;;;;;;;5005896;28;20053;-80
2021/11/07 05:52:37;;;;;;;1.58;0.63;;;;;;;;;;5007358;28;20725;-81
2021/11/07 05:55:04;;;;;;;1.08;0.70;;;;;;;;;;4991325;28;20045;-81
2021/11/07 05:57:31;;;;;;;2.22;0.50;;;;;;;;;;5006979;28;20069;-81
2021/11/07 05:59:57;;;;;;;1.50;0.70;;;;;;;;;;5009992;28;20066;-81
2021/11/07 06:02:24;;;;;;;3.08;0.70;;;;;;;;;;5010891;28;20029;-81
2021/11/07 06:04:51;;;;;;;1.80;0.80;;;;;;;;;;5008943;28;20072;-82
2021/11/07 06:07:20;;;;;;;1.42;0.80;;;;;;;;;;5010059;28;20619;-81
2021/11/07 06:09:47;;;;;;;1.25;0.65;;;;;;;;;;5012446;28;20034;-80
2021/11/07 06:12:13;;;;;;;1.90;0.80;;;;;;;;;;5007564;28;20066;-80
2021/11/07 06:14:39;;;;;;;2.50;0.70;;;;;;;;;;5009308;28;20080;-81
2021/11/07 06:17:06;;;;;;;1.48;0.68;;;;;;;;;;5010938;28;20537;-80
2021/11/07 06:19:33;;;;;;;2.45;0.63;;;;;;;;;;5008694;28;20069;-80
2021/11/07 06:22:00;;;;;;;1.60;0.60;;;;;;;;;;5008504;28;20061;-80
2021/11/07 06:24:28;;;;;;;1.70;0.65;;;;;;;;;;5010022;28;20073;-81
2021/11/07 06:26:58;;;;;;;1.55;0.60;;;;;;;;;;5009974;28;20081;-80
2021/11/07 06:29:25;;;;;;;2.28;0.93;;;;;;;;;;4992990;28;20481;-79
2021/11/07 06:31:53;;;;;;;1.67;0.77;;;;;;;;;;5007005;28;20069;-80
2021/11/07 06:34:20;;;;;;;1.70;0.70;;;;;;;;;;5000355;28;20489;-79
2021/11/07 06:36:47;;;;;;;2.05;0.70;;;;;;;;;;4993017;28;20065;-80
2021/11/07 06:39:14;;;;;;;2.65;0.73;;;;;;;;;;5008334;28;20172;-78
2021/11/07 06:41:42;;;;;;;1.77;0.63;;;;;;;;;;5007501;28;21404;-79
2021/11/07 06:44:08;;;;;;;3.78;0.90;;;;;;;;;;5008610;28;20841;-79
2021/11/07 06:46:38;;;;;;;3.40;0.90;;;;;;;;;;5009221;28;20061;-82
2021/11/07 06:49:05;;;;;;;3.00;1.00;;;;;;;;;;5009100;28;20073;-80
2021/11/07 06:51:32;;;;;;;2.53;0.85;;;;;;;;;;5007271;28;20069;-79
2021/11/07 06:53:58;;;;;;;1.17;0.40;;;;;;;;;;5009605;28;20041;-80
2021/11/07 06:56:25;;;;;;;1.30;0.68;;;;;;;;;;5006435;28;20038;-81
2021/11/07 06:58:51;;;;;;;3.72;0.90;;;;;;;;;;5005806;28;20095;-81
2021/11/07 07:01:18;;;;;;;2.45;0.60;;;;;;;;;;5000449;28;20050;-81
2021/11/07 07:03:45;;;;;;;2.47;0.90;;;;;;;;;;5004763;28;20069;-81
2021/11/07 07:06:11;;;;;;;2.75;0.80;;;;;;;;;;5005948;28;20053;-82
2021/11/07 07:08:52;;;;;;;3.58;0.80;;;;;;;;;;5004181;28;20719;-80
2021/11/07 07:11:26;;;;;;;4.57;0.70;;;;;;;;;;4997714;28;20069;-80
2021/11/07 07:14:03;;;;;;;2.20;0.55;;;;;;;;;;5002260;28;20080;-81
2021/11/07 07:16:41;;;;;;;2.63;0.70;;;;;;;;;;5002603;28;20077;-80
2021/11/07 07:25:18;;;;;;;2.38;0.52;;;;;;;;;;5002920;28;20159;-81
2021/11/07 07:32:50;;;;;;;2.78;0.70;;;;;;;;;;5004165;28;21669;-80
2021/11/07 07:35:22;;;;;;;2.53;0.70;;;;;;;;;;5004623;28;20053;-80
2021/11/07 07:37:49;;;;;;;1.80;0.73;;;;;;;;;;5003725;28;20058;-80
2021/11/07 07:40:15;;;;;;;4.03;0.93;;;;;;;;;;5001891;28;20042;-80
2021/11/07 07:42:42;;;;;;;2.95;1.00;;;;;;;;;;4986802;28;20505;-81
2021/11/07 07:45:08;;;;;;;2.47;1.10;;;;;;;;;;5001695;28;20408;-80
2021/11/07 07:47:35;;;;;;;3.42;0.88;;;;;;;;;;5003120;28;20042;-81
2021/11/07 07:50:03;;;;;;;2.30;0.80;;;;;;;;;;5004736;28;20054;-81
2021/11/07 07:52:29;;;;;;;2.35;0.80;;;;;;;;;;5001867;28;20056;-80
2021/11/07 07:54:56;;;;;;;3.28;0.88;;;;;;;;;;4998930;28;20523;-80
2021/11/07 07:57:23;;;;;;;2.10;0.80;;;;;;;;;;4998118;28;20142;-79
2021/11/07 07:59:49;;;;;;;3.92;0.90;;;;;;;;;;4986783;28;20070;-80
2021/11/07 08:02:16;;;;;;;3.40;1.00;;;;;;;;;;5002905;28;20066;-80
2021/11/07 08:04:42;;;;;;;5.15;0.90;;;;;;;;;;4999155;28;20054;-82
2021/11/07 08:07:09;;;;;;;1.75;0.77;;;;;;;;;;5003987;28;20540;-81
2021/11/07 08:09:35;;;;;;;5.18;0.90;;;;;;;;;;5001462;28;20092;-81
2021/11/07 08:12:08;;;;;;;3.50;0.90;;;;;;;;;;4998476;28;20129;-82
2021/11/07 08:14:35;;;;;;;1.98;0.90;;;;;;;;;;5000604;28;20057;-81
2021/11/07 08:17:02;;;;;;;4.72;1.33;;;;;;;;;;5002345;28;20097;-82
2021/11/07 08:19:28;;;;;;;2.33;0.95;;;;;;;;;;4999777;28;20099;-79
2021/11/07 08:21:56;;;;;;;2.85;1.00;;;;;;;;;;5007636;28;20490;-85
2021/11/07 08:24:22;;;;;;;5.32;1.05;;;;;;;;;;5000206;28;20068;-92
2021/11/07 08:26:49;;;;;;;2.08;0.90;;;;;;;;;;5006682;28;20049;-79
2021/11/07 08:29:16;;;;;;;4.60;1.20;;;;;;;;;;5006492;28;20056;-77
2021/11/07 08:31:45;;;;;;;2.47;0.98;;;;;;;;;;4986958;28;20127;-77
2021/11/07 08:34:12;;;;;;;3.72;0.95;;;;;;;;;;5007298;28;20064;-74
2021/11/07 08:39:20;;;;;;;4.53;1.00;;;;;;;;;;5006210;28;20062;-75
2021/11/07 08:42:02;;;;;;;1.70;0.90;;;;;;;;;;5002663;28;20425;-76
2021/11/07 09:06:56;;;;;;;3.25;0.95;;;;;;;;;;5003264;28;20481;-79
2021/11/07 09:09:26;;;;;;;3.35;0.73;;;;;;;;;;5004212;28;20046;-82
2021/11/07 09:11:55;;;;;;;4.55;0.95;;;;;;;;;;5008596;28;20092;-83
2021/11/07 09:14:23;;;;;;;3.40;1.13;;;;;;;;;;4993914;28;20037;-83
2021/11/07 09:16:51;;;;;;;6.90;0.90;;;;;;;;;;5009829;28;20096;-81
2021/11/07 09:19:21;;;;;;;3.80;0.93;;;;;;;;;;5009204;28;20077;-85
2021/11/07 09:21:52;;;;;;;3.90;0.88;;;;;;;;;;5010443;28;20033;-83
2021/11/07 09:24:29;;;;;;;4.20;1.10;;;;;;;;;;5001047;28;20085;-88
2021/11/07 09:26:57;;;;;;;10.73;1.00;;;;;;;;;;5010512;28;20034;-92
2021/11/07 09:29:33;;;;;;;3.42;0.77;;;;;;;;;;4997219;28;20560;-85
2021/11/07 09:32:21;;;;;;;3.75;0.60;;;;;;;;;;5009181;28;20100;-83
2021/11/07 09:37:43;;;;;;;5.18;1.10;;;;;;;;;;5007523;28;20120;-87
2021/11/07 09:40:13;;;;;;;3.20;0.82;;;;;;;;;;5010097;28;20119;-81
2021/11/07 09:45:21;;;;;;;6.63;1.00;;;;;;;;;;5007045;28;20053;-81
2021/11/07 09:47:53;;;;;;;8.98;1.13;;;;;;;;;;5008354;28;20298;-81
2021/11/07 09:50:20;;;;;;;4.18;0.98;;;;;;;;;;5005854;28;20104;-82
2021/11/07 09:52:52;;;;;;;3.58;1.15;;;;;;;;;;5006595;28;20535;-81
2021/11/07 09:55:21;;;;;;;3.58;0.60;;;;;;;;;;4985184;28;20435;-82
2021/11/07 09:57:50;;;;;;;2.72;0.95;;;;;;;;;;5005628;28;20054;-82
2021/11/07 10:00:20;;;;;;;4.40;1.05;;;;;;;;;;5005131;28;20140;-82
2021/11/07 10:02:47;;;;;;;3.42;0.80;;;;;;;;;;5006101;28;20053;-82
2021/11/07 10:05:15;;;;;;;3.83;1.05;;;;;;;;;;5006930;28;20065;-81
2021/11/07 10:07:43;;;;;;;5.22;1.05;;;;;;;;;;5004679;28;21687;-82
2021/11/07 10:10:23;;;;;;;5.88;1.13;;;;;;;;;;5002979;28;20034;-84
2021/11/07 10:12:56;;;;;;;3.83;1.10;;;;;;;;;;5005346;28;22304;-85
2021/11/07 10:15:30;;;;;;;5.25;1.10;;;;;;;;;;5007425;28;20564;-85
2021/11/07 10:18:04;;;;;;;4.20;0.80;;;;;;;;;;5002212;28;20069;-86
2021/11/07 10:20:54;;;;;;;5.13;1.13;;;;;;;;;;5006483;28;20128;-83
2021/11/07 10:28:48;;;;;;;3.00;0.88;;;;;;;;;;4996115;28;20303;-84
2021/11/07 10:31:20;;;;;;;5.00;1.00;;;;;;;;;;5006090;28;20112;-84
2021/11/07 10:47:24;;;;;;;4.28;1.40;;;;;;;;;;5009808;28;20057;-83
2021/11/07 10:52:39;;;;;;;6.70;1.63;;;;;;;;;;5009071;28;20100;-83
2021/11/07 10:55:07;;;;;;;4.80;1.20;;;;;;;;;;5015555;28;20061;-83
2021/11/07 10:57:34;;;;;;;4.82;1.40;;;;;;;;;;5008588;28;20030;-83
2021/11/07 11:00:16;;;;;;;4.15;1.70;;;;;;;;;;5011000;28;20101;-83
2021/11/07 11:02:48;;;;;;;6.57;1.70;;;;;;;;;;5007635;28;22312;-81
2021/11/07 11:05:18;;;;;;;4.63;1.50;;;;;;;;;;5009997;28;20401;-82
2021/11/07 11:08:21;;;;;;;5.53;1.80;;;;;;;;;;5008761;28;20084;-82
2021/11/07 11:10:56;;;;;;;4.15;1.10;;;;;;;;;;4978341;28;21265;-82
2021/11/07 11:16:08;;;;;;;4.35;1.20;;;;;;;;;;5006967;28;20038;-81
2021/11/07 11:21:45;;;;;;;5.47;1.30;;;;;;;;;;4985911;28;20552;-81
2021/11/07 11:24:49;;;;;;;8.60;1.48;;;;;;;;;;4984561;28;20041;-82
2021/11/07 11:34:53;;;;;;;2.13;1.00;;;;;;;;;;4987658;28;20107;-81
2021/11/07 11:37:31;;;;;;;7.05;1.95;;;;;;;;;;5005104;28;20686;-82
2021/11/07 11:40:13;;;;;;;5.53;1.20;;;;;;;;;;5005426;28;20058;-81
2021/11/07 11:42:49;;;;;;;6.78;1.10;;;;;;;;;;5007156;28;20559;-81
2021/11/07 11:45:28;;;;;;;4.40;1.13;;;;;;;;;;5009375;28;20088;-81
2021/11/07 11:51:19;;;;;;;3.85;1.15;;;;;;;;;;5001912;28;20084;-81
2021/11/07 11:54:05;;;;;;;4.68;1.20;;;;;;;;;;4998887;28;20509;-80
2021/11/07 11:56:49;;;;;;;4.60;1.00;;;;;;;;;;5004811;28;20480;-80
2021/11/07 11:59:49;;;;;;;3.58;0.90;;;;;;;;;;4999239;28;20501;-82
2021/11/07 12:02:23;;;;;;;5.90;1.23;;;;;;;;;;4991125;28;20025;-81
2021/11/07 12:04:58;;;;;;;6.60;1.10;;;;;;;;;;5006571;28;20042;-81
2021/11/07 12:07:32;;;;;;;2.92;1.00;;;;;;;;;;5007594;28;20112;-82
2021/11/07 12:10:15;;;;;;;4.72;1.05;;;;;;;;;;5008419;28;20119;-81
2021/11/07 12:15:16;;;;;;;3.17;0.93;;;;;;;;;;5008361;28;20057;-81
2021/11/07 12:17:45;;;;;;;3.97;1.08;;;;;;;;;;5002788;28;20058;-81
2021/11/07 12:20:21;;;;;;;4.78;1.00;;;;;;;;;;5008724;28;20065;-82
2021/11/07 12:22:48;;;;;;;3.33;1.15;;;;;;;;;;5002800;28;20054;-84
2021/11/07 12:25:15;;;;;;;3.28;1.00;;;;;;;;;;5007429;28;20624;-81
2021/11/07 12:27:49;;;;;;;4.85;1.13;;;;;;;;;;5009888;28;22366;-83
2021/11/07 12:30:23;;;;;;;2.42;1.00;;;;;;;;;;5008312;28;20061;-84
2021/11/07 12:32:50;;;;;;;4.65;1.08;;;;;;;;;;4987343;28;23873;-84
2021/11/07 12:35:39;;;;;;;3.10;1.05;;;;;;;;;;5004114;28;20069;-82
2021/11/07 12:41:06;;;;;;;1.73;0.80;;;;;;;;;;5007012;28;20103;-82
2021/11/07 12:43:33;;;;;;;3.92;0.90;;;;;;;;;;5004364;28;20135;-83
2021/11/07 12:49:04;;;;;;;4.25;1.13;;;;;;;;;;5004427;28;20128;-82
2021/11/07 12:51:38;;;;;;;5.13;1.27;;;;;;;;;;5009617;28;20034;-83
2021/11/07 12:54:06;;;;;;;4.90;1.40;;;;;;;;;;5010229;28;20518;-81
2021/11/07 12:56:44;;;;;;;4.95;1.13;;;;;;;;;;5005655;28;20057;-81
2021/11/07 12:59:15;;;;;;;5.35;1.10;;;;;;;;;;4990426;28;20290;-83
2021/11/07 13:02:02;;;;;;;4.53;1.02;;;;;;;;;;5002696;28;21311;-82
2021/11/07 13:04:29;;;;;;;6.88;1.08;;;;;;;;;;5008524;28;20080;-81
2021/11/07 13:06:58;;;;;;;2.17;0.85;;;;;;;;;;5004948;28;20588;-80
2021/11/07 13:09:34;;;;;;;2.95;0.82;;;;;;;;;;5007727;28;20080;-80
2021/11/07 13:12:09;;;;;;;2.30;0.73;;;;;;;;;;5006701;28;20128;-77
2021/11/07 13:15:07;;;;;;;3.63;1.90;;;;;;;;;;4994063;28;20065;-78
2021/11/07 13:17:54;;;;;;;2.45;0.70;;;;;;;;;;5005340;28;20578;-80
2021/11/07 13:25:55;;;;;;;2.92;0.88;;;;;;;;;;5000500;28;20767;-79
2021/11/07 13:31:14;;;;;;;3.95;0.90;;;;;;;;;;5002374;28;20119;-79
2021/11/07 13:33:44;;;;;;;2.83;0.77;;;;;;;;;;5000936;28;20069;-78
2021/11/07 13:36:12;;;;;;;3.58;0.95;;;;;;;;;;4995973;28;20103;-79
2021/11/07 13:38:48;;;;;;;4.57;1.20;;;;;;;;;;4999303;28;20069;-78
2021/11/07 13:41:18;;;;;;;4.00;1.05;;;;;;;;;;5002854;28;20437;-79
2021/11/07 13:43:58;;;;;;;3.55;0.80;;;;;;;;;;5004232;28;20058;-79
2021/11/07 13:46:24;;;;;;;4.38;1.00;;;;;;;;;;4998393;28;20489;-79
2021/11/07 13:49:01;;;;;;;2.08;0.60;;;;;;;;;;4982687;28;20073;-79
2021/11/07 13:51:27;;;;;;;4.60;1.00;;;;;;;;;;4985061;28;20069;-79
2021/11/07 13:53:58;;;;;;;2.88;1.00;;;;;;;;;;5004659;28;20081;-79
2021/11/07 13:56:24;;;;;;;2.75;0.80;;;;;;;;;;4984847;28;20073;-79
2021/11/07 13:58:50;;;;;;;3.85;0.80;;;;;;;;;;5000287;28;20433;-78
2021/11/07 14:01:17;;;;;;;3.38;0.93;;;;;;;;;;5001133;28;20128;-79
2021/11/07 14:03:44;;;;;;;2.63;0.80;;;;;;;;;;5002863;28;20128;-79
2021/11/07 14:06:13;;;;;;;2.28;0.70;;;;;;;;;;5001978;28;20062;-79
2021/11/07 14:08:44;;;;;;;2.60;0.77;;;;;;;;;;5003100;28;20065;-78
2021/11/07 14:11:11;;;;;;;2.38;0.85;;;;;;;;;;5005222;28;20058;-78
2021/11/07 14:13:42;;;;;;;3.63;1.20;;;;;;;;;;5002139;28;20061;-79
2021/11/07 14:16:09;;;;;;;2.65;1.35;;;;;;;;;;5002710;28;20061;-77
2021/11/07 14:18:41;;;;;;;3.65;1.40;;;;;;;;;;5000556;28;20096;-77
2021/11/07 14:21:08;;;;;;;2.97;1.45;;;;;;;;;;5002817;28;20085;-78
2021/11/07 14:23:48;;;;;;;3.20;1.55;;;;;;;;;;5006237;28;20080;-76
2021/11/07 14:26:42;;;;;;;5.53;1.90;;;;;;;;;;5005187;28;20058;-79
2021/11/07 14:29:25;;;;;;;10.88;2.15;;;;;;;;;;5005879;28;20659;-78
2021/11/07 14:31:55;;;;;;;4.15;1.73;;;;;;;;;;5003716;28;20062;-78
2021/11/07 14:34:29;;;;;;;4.25;1.90;;;;;;;;;;5004953;28;20124;-79
2021/11/07 14:37:34;;;;;;;4.43;1.70;;;;;;;;;;5005628;28;20092;-78
2021/11/07 14:55:58;;;;;;;6.22;1.70;;;;;;;;;;5009600;28;20061;-77
2021/11/07 14:58:45;;;;;;;2.53;1.30;;;;;;;;;;5012013;28;20070;-79
2021/11/07 15:01:17;;;;;;;2.35;1.27;;;;;;;;;;5009582;28;20111;-77
2021/11/07 15:07:07;;;;;;;4.97;2.22;;;;;;;;;;5008245;28;20176;-77
2021/11/07 15:09:48;;;;;;;6.43;2.90;;;;;;;;;;5008384;28;20069;-79
2021/11/07 15:12:49;;;;;;;10.32;2.58;;;;;;;;;;4991694;28;20061;-78
2021/11/07 15:20:49;;;;;;;5.30;1.90;;;;;;;;;;5007302;28;20630;-77
2021/11/07 15:23:25;;;;;;;7.55;2.78;;;;;;;;;;4990288;28;20061;-83
2021/11/07 15:25:51;;;;;;;20.33;6.28;;;;;;;;;;5002030;28;20656;-80
2021/11/07 15:28:18;;;;;;;15.90;5.07;;;;;;;;;;5007218;28;20061;-79
2021/11/07 15:30:45;;;;;;;14.02;4.40;;;;;;;;;;5009105;28;20053;-80
2021/11/07 15:33:15;;;;;;;16.25;5.05;;;;;;;;;;5008745;28;20174;-80
2021/11/07 15:35:54;;;;;;;13.25;5.05;;;;;;;;;;4989957;28;20038;-81
2021/11/07 15:38:21;;;;;;;13.30;3.72;;;;;;;;;;5007262;28;20054;-81
2021/11/07 15:40:50;;;;;;;13.65;4.07;;;;;;;;;;5006235;28;20033;-79
2021/11/07 15:43:18;;;;;;;12.45;4.38;;;;;;;;;;5004922;28;20057;-82
2021/11/07 15:48:32;;;;;;;13.00;4.05;;;;;;;;;;5003725;28;20519;-80
2021/11/07 15:51:09;;;;;;;14.13;4.10;;;;;;;;;;4989633;28;20112;-81
2021/11/07 16:04:43;;;;;;;13.75;3.45;;;;;;;;;;4999021;28;20116;-81
2021/11/07 16:09:59;;;;;;;9.88;2.78;;;;;;;;;;5013668;28;20069;-87
2021/11/07 16:12:36;;;;;;;9.32;2.75;;;;;;;;;;4991276;28;20061;-87
2021/11/07 16:17:47;;;;;;;5.82;2.00;;;;;;;;;;5010020;28;20084;-91
2021/11/07 16:20:17;;;;;;;8.05;2.30;;;;;;;;;;4991666;28;20034;-86
2021/11/07 16:22:50;;;;;;;5.65;2.25;;;;;;;;;;5011841;28;20034;-88
2021/11/07 16:25:19;;;;;;;9.25;2.38;;;;;;;;;;4990002;28;20054;-90
2021/11/07 16:27:46;;;;;;;10.80;2.55;;;;;;;;;;5007694;28;20489;-89
2021/11/07 16:30:15;;;;;;;5.72;1.92;;;;;;;;;;5009363;28;20065;-88
2021/11/07 16:32:49;;;;;;;6.57;1.77;;;;;;;;;;5010424;28;20037;-89
2021/11/07 16:38:25;;;;;;;6.72;1.85;;;;;;;;;;5008315;28;20069;-90
2021/11/07 16:40:55;;;;;;;5.30;1.67;;;;;;;;;;5008813;28;20029;-83
2021/11/07 16:43:24;;;;;;;5.38;1.58;;;;;;;;;;5004961;28;20616;-82
2021/11/07 16:45:50;;;;;;;10.57;2.20;;;;;;;;;;5005689;28;20058;-80
2021/11/07 16:48:17;;;;;;;9.90;2.35;;;;;;;;;;5005989;28;20291;-80
2021/11/07 16:50:54;;;;;;;7.80;2.28;;;;;;;;;;4987546;28;22176;-80
2021/11/07 16:53:34;;;;;;;4.97;1.90;;;;;;;;;;5002958;28;20062;-81
2021/11/07 16:56:05;;;;;;;6.00;2.05;;;;;;;;;;5004302;28;20062;-80
2021/11/07 16:58:48;;;;;;;;;;;;;;;;;;4993936;28;20050;-80
2021/11/07 17:01:20;;;;;;;6.60;1.92;;;;;;;;;;5006222;28;20076;-81
2021/11/07 17:03:51;;;;;;;5.90;2.03;;;;;;;;;;5004406;28;20398;-80
2021/11/07 17:06:31;;;;;;;6.32;2.20;;;;;;;;;;5007220;28;20064;-79
2021/11/07 17:09:36;;;;;;;4.67;1.73;;;;;;;;;;5006365;28;20034;-80
2021/11/07 17:11:56;;;;;;;5.97;1.90;;;;;;;;;;5000863;28;20053;-82
2021/11/07 17:14:22;;;;;;;4.95;1.75;;;;;;;;;;5007872;28;20065;-81
2021/11/07 17:16:52;;;;;;;4.47;1.90;;;;;;;;;;5004744;28;20069;-80
2021/11/07 17:19:21;;;;;;;9.27;2.45;;;;;;;;;;5000073;28;20090;-80
2021/11/07 17:22:07;;;;;;;5.25;1.33;;;;;;;;;;5007755;28;20505;-81
2021/11/07 17:24:45;;;;;;;3.90;1.50;;;;;;;;;;5006021;28;20080;-81
2021/11/07 17:27:14;;;;;;;5.75;1.55;;;;;;;;;;5006097;28;20111;-79
2021/11/07 17:29:52;;;;;;;3.83;1.48;;;;;;;;;;5006954;28;20050;-79
2021/11/07 17:32:26;;;;;;;4.93;1.65;;;;;;;;;;4988187;28;20143;-80
2021/11/07 17:34:58;;;;;;;7.90;1.77;;;;;;;;;;5006003;28;20060;-81
2021/11/07 17:37:36;;;;;;;5.53;1.83;;;;;;;;;;5009122;28;20061;-80
2021/11/07 17:56:40;;;;;;;5.97;1.70;;;;;;;;;;5007889;28;20100;-80
2021/11/07 17:59:06;;;;;;;5.15;1.75;;;;;;;;;;5011746;28;20512;-79
2021/11/07 18:01:33;;;;;;;7.43;1.70;;;;;;;;;;5010429;28;20128;-80
2021/11/07 18:04:00;;;;;;;4.57;1.40;;;;;;;;;;5010524;28;20567;-79
2021/11/07 18:06:29;;;;;;;3.03;1.20;;;;;;;;;;5011944;28;20061;-79
2021/11/07 18:09:01;;;;;;;3.80;1.30;;;;;;;;;;5008934;28;20038;-78
2021/11/07 18:11:29;;;;;;;3.50;1.42;;;;;;;;;;5011867;28;20106;-79
2021/11/07 18:13:57;;;;;;;4.18;1.25;;;;;;;;;;5012983;28;20073;-79